Strasburg, OH (44680)

3:35 PM EDT on September 16, 2014 (GMT -0400)
GET | Change Station
CLOSE
Current Station
Personal Weather Station
Location: Strasburg, OH
Elevation: 980 ft
Nearby Weather Stations

Elev 980 ft 40.63 °N, 81.53 °W | Updated 4 minutes ago

Mostly Cloudy
Mostly Cloudy
68.3 °F
Feels Like 68.3 °F
N
2.0
Wind Variable Wind from WSW
Gusts 2.0 mph

Today
High -- | Low -- °F
--% Chance of Precip.
Yesterday
High -- | Low -- °F
Precip. -- in
7:07 AM 7:33 PM
Last Quarter, 43% visible
Pressure 30.10 in
Visibility 10.0 miles
Clouds Scattered Clouds 3600 ft
Mostly Cloudy 5000 ft
Dew Point 57 °F
Humidity 67%
Rainfall 0.23 in
Snow Depth Not available.
UV 4 out of 12
Pollen 3.20 out of 12
Air Quality Not available.
Flu Activity Not available.
METAR KPHD 161853Z AUTO 19004KT 10SM SCT036 BKN050 19/11 A3010 RMK AO2 SLP192 T01940111

More Conditions Fewer Conditions

Pressure 30.10 in
Visibility 10.0 miles
Clouds Scattered Clouds 3600 ft
Mostly Cloudy 5000 ft
Dew Point 57 °F
Humidity 67%
Rainfall 0.23 in
Snow Depth Not available.
UV 4 out of 12
Pollen 3.20 out of 12
Air Quality Not available.
Flu Activity Not available.
METAR KPHD 161853Z AUTO 19004KT 10SM SCT036 BKN050 19/11 A3010 RMK AO2 SLP192 T01940111

More Conditions Fewer Conditions

10-Day Weather Forecast

Almanac

Astronomy

Sep. 16, 2014 Rise Set
Actual Time 7:07 AM EDT 7:33 PM EDT
Civil Twilight 6:40 AM EDT 8:00 PM EDT
Nautical Twilight 6:08 AM EDT 8:32 PM EDT
Astronomical Twilight 5:35 AM EDT 9:05 PM EDT
Moon 12:15 AM EDT 2:57 PM EDT
Length of Visible Light 13h 20m
Length of Day
12h 25m
Tomorrow will be 2m 39s shorter.
Last Quarter, 43% of the Moon is Illuminated
Today
Last Quarter
Sep 24
New
Oct 1
First Quarter
Oct 8
Full
Oct 15
Last Quarter

Today's Extremes

State Highs State Lows

Community

WunderPhotos

Upload Photos

1,753,860 photos uploaded!

Nearby

Snow Depth

Station Depth Elevation
No new snow has been reported.

Earthquake Activity

City Distance Mag. Time & Date
No recent earthquake activity has been reported nearby.
Minimum magnitude displayed is 2.5.

Coastal Water Temperatures

Place Temperature
No Stations Reporting

Nearby Weather Stations